sensor_id;sensor_type;location;lat;lon;timestamp;P1;durP1;ratioP1;P2;durP2;ratioP2
11582;SDS011;34299;50.820;4.548;2023-04-03T00:00:32;8.07;;;5.80;;
11582;SDS011;34299;50.820;4.548;2023-04-03T00:02:59;7.30;;;5.47;;
11582;SDS011;34299;50.820;4.548;2023-04-03T00:05:28;8.27;;;5.97;;
11582;SDS011;34299;50.820;4.548;2023-04-03T00:07:55;6.73;;;5.63;;
11582;SDS011;34299;50.820;4.548;2023-04-03T00:10:22;6.83;;;5.40;;
11582;SDS011;34299;50.820;4.548;2023-04-03T00:12:50;7.87;;;5.90;;
11582;SDS011;34299;50.820;4.548;2023-04-03T00:15:17;9.63;;;5.63;;
11582;SDS011;34299;50.820;4.548;2023-04-03T00:17:44;8.63;;;5.60;;
11582;SDS011;34299;50.820;4.548;2023-04-03T00:20:11;8.40;;;5.90;;
11582;SDS011;34299;50.820;4.548;2023-04-03T00:22:40;6.70;;;5.23;;
11582;SDS011;34299;50.820;4.548;2023-04-03T00:25:08;9.17;;;5.37;;
11582;SDS011;34299;50.820;4.548;2023-04-03T00:27:35;7.67;;;5.90;;
11582;SDS011;34299;50.820;4.548;2023-04-03T00:30:03;5.23;;;4.70;;
11582;SDS011;34299;50.820;4.548;2023-04-03T00:32:31;10.67;;;6.00;;
11582;SDS011;34299;50.820;4.548;2023-04-03T00:34:58;7.17;;;5.53;;
11582;SDS011;34299;50.820;4.548;2023-04-03T00:37:25;6.10;;;5.50;;
11582;SDS011;34299;50.820;4.548;2023-04-03T00:39:54;7.43;;;5.20;;
11582;SDS011;34299;50.820;4.548;2023-04-03T00:42:21;5.83;;;5.20;;
11582;SDS011;34299;50.820;4.548;2023-04-03T00:47:34;7.47;;;5.20;;
11582;SDS011;34299;50.820;4.548;2023-04-03T00:50:02;6.30;;;5.00;;
11582;SDS011;34299;50.820;4.548;2023-04-03T00:52:29;7.00;;;4.77;;
11582;SDS011;34299;50.820;4.548;2023-04-03T00:54:59;10.93;;;5.23;;
11582;SDS011;34299;50.820;4.548;2023-04-03T00:57:27;7.77;;;5.03;;
11582;SDS011;34299;50.820;4.548;2023-04-03T00:59:55;6.30;;;5.03;;
11582;SDS011;34299;50.820;4.548;2023-04-03T01:02:24;7.53;;;5.07;;
11582;SDS011;34299;50.820;4.548;2023-04-03T01:04:52;9.53;;;6.03;;
11582;SDS011;34299;50.820;4.548;2023-04-03T01:07:20;8.53;;;5.40;;
11582;SDS011;34299;50.820;4.548;2023-04-03T01:09:49;6.93;;;5.47;;
11582;SDS011;34299;50.820;4.548;2023-04-03T01:12:20;7.37;;;5.63;;
11582;SDS011;34299;50.820;4.548;2023-04-03T01:14:49;8.93;;;5.53;;
11582;SDS011;34299;50.820;4.548;2023-04-03T01:17:30;6.53;;;5.00;;
11582;SDS011;34299;50.820;4.548;2023-04-03T01:20:03;7.80;;;6.07;;
11582;SDS011;34299;50.820;4.548;2023-04-03T01:22:41;7.83;;;5.13;;
11582;SDS011;34299;50.820;4.548;2023-04-03T01:25:11;6.10;;;4.63;;
11582;SDS011;34299;50.820;4.548;2023-04-03T01:27:39;7.80;;;5.60;;
11582;SDS011;34299;50.820;4.548;2023-04-03T01:30:07;7.53;;;5.37;;
11582;SDS011;34299;50.820;4.548;2023-04-03T01:32:47;8.03;;;5.37;;
11582;SDS011;34299;50.820;4.548;2023-04-03T01:35:15;8.20;;;5.43;;
11582;SDS011;34299;50.820;4.548;2023-04-03T01:37:42;6.27;;;5.07;;
11582;SDS011;34299;50.820;4.548;2023-04-03T01:40:10;8.37;;;5.40;;
11582;SDS011;34299;50.820;4.548;2023-04-03T01:42:37;5.57;;;4.80;;
11582;SDS011;34299;50.820;4.548;2023-04-03T01:45:05;8.27;;;5.20;;
11582;SDS011;34299;50.820;4.548;2023-04-03T01:47:32;8.50;;;5.50;;
11582;SDS011;34299;50.820;4.548;2023-04-03T01:50:01;7.83;;;5.03;;
11582;SDS011;34299;50.820;4.548;2023-04-03T01:52:28;6.83;;;5.10;;
11582;SDS011;34299;50.820;4.548;2023-04-03T01:54:55;5.77;;;5.27;;
11582;SDS011;34299;50.820;4.548;2023-04-03T01:57:23;8.07;;;5.37;;
11582;SDS011;34299;50.820;4.548;2023-04-03T01:59:50;8.53;;;5.10;;
11582;SDS011;34299;50.820;4.548;2023-04-03T02:02:17;7.23;;;4.93;;
11582;SDS011;34299;50.820;4.548;2023-04-03T02:04:45;7.60;;;5.27;;
11582;SDS011;34299;50.820;4.548;2023-04-03T02:07:14;6.28;;;5.60;;
11582;SDS011;34299;50.820;4.548;2023-04-03T02:09:41;6.60;;;5.55;;
11582;SDS011;34299;50.820;4.548;2023-04-03T02:12:08;8.27;;;5.50;;
11582;SDS011;34299;50.820;4.548;2023-04-03T02:14:36;10.87;;;5.87;;
11582;SDS011;34299;50.820;4.548;2023-04-03T02:17:03;6.93;;;5.20;;
11582;SDS011;34299;50.820;4.548;2023-04-03T02:19:33;9.10;;;6.10;;
11582;SDS011;34299;50.820;4.548;2023-04-03T02:22:01;6.90;;;5.37;;
11582;SDS011;34299;50.820;4.548;2023-04-03T02:24:30;8.37;;;5.23;;
11582;SDS011;34299;50.820;4.548;2023-04-03T02:26:57;7.43;;;5.57;;
11582;SDS011;34299;50.820;4.548;2023-04-03T02:29:24;8.17;;;5.43;;
11582;SDS011;34299;50.820;4.548;2023-04-03T02:31:52;9.00;;;5.47;;
11582;SDS011;34299;50.820;4.548;2023-04-03T02:34:19;8.83;;;5.23;;
11582;SDS011;34299;50.820;4.548;2023-04-03T02:36:46;6.95;;;5.63;;
11582;SDS011;34299;50.820;4.548;2023-04-03T02:39:13;7.77;;;5.33;;
11582;SDS011;34299;50.820;4.548;2023-04-03T02:41:42;7.13;;;5.47;;
11582;SDS011;34299;50.820;4.548;2023-04-03T02:44:10;7.27;;;5.27;;
11582;SDS011;34299;50.820;4.548;2023-04-03T02:46:37;7.88;;;5.78;;
11582;SDS011;34299;50.820;4.548;2023-04-03T02:49:05;10.20;;;5.68;;
11582;SDS011;34299;50.820;4.548;2023-04-03T02:51:32;6.97;;;5.53;;
11582;SDS011;34299;50.820;4.548;2023-04-03T02:53:59;9.40;;;6.28;;
11582;SDS011;34299;50.820;4.548;2023-04-03T02:56:27;7.72;;;5.43;;
11582;SDS011;34299;50.820;4.548;2023-04-03T02:58:56;8.02;;;5.80;;
11582;SDS011;34299;50.820;4.548;2023-04-03T03:01:23;9.65;;;5.80;;
11582;SDS011;34299;50.820;4.548;2023-04-03T03:03:52;7.78;;;5.68;;
11582;SDS011;34299;50.820;4.548;2023-04-03T03:06:19;10.67;;;6.03;;
11582;SDS011;34299;50.820;4.548;2023-04-03T03:08:46;7.05;;;5.07;;
11582;SDS011;34299;50.820;4.548;2023-04-03T03:11:14;9.07;;;6.10;;
11582;SDS011;34299;50.820;4.548;2023-04-03T03:13:41;9.63;;;5.55;;
11582;SDS011;34299;50.820;4.548;2023-04-03T03:16:10;8.13;;;5.65;;
11582;SDS011;34299;50.820;4.548;2023-04-03T03:18:37;7.82;;;5.35;;
11582;SDS011;34299;50.820;4.548;2023-04-03T03:21:05;7.40;;;5.40;;
11582;SDS011;34299;50.820;4.548;2023-04-03T03:23:32;8.02;;;6.30;;
11582;SDS011;34299;50.820;4.548;2023-04-03T03:26:00;6.97;;;5.30;;
11582;SDS011;34299;50.820;4.548;2023-04-03T03:28:28;7.20;;;6.18;;
11582;SDS011;34299;50.820;4.548;2023-04-03T03:30:55;10.52;;;5.70;;
11582;SDS011;34299;50.820;4.548;2023-04-03T03:33:24;8.27;;;5.65;;
11582;SDS011;34299;50.820;4.548;2023-04-03T03:35:51;7.43;;;5.65;;
11582;SDS011;34299;50.820;4.548;2023-04-03T03:38:19;8.57;;;5.82;;
11582;SDS011;34299;50.820;4.548;2023-04-03T03:40:46;6.45;;;5.03;;
11582;SDS011;34299;50.820;4.548;2023-04-03T03:43:14;6.85;;;5.05;;
11582;SDS011;34299;50.820;4.548;2023-04-03T03:45:42;6.30;;;5.43;;
11582;SDS011;34299;50.820;4.548;2023-04-03T03:48:09;6.57;;;5.80;;
11582;SDS011;34299;50.820;4.548;2023-04-03T03:50:38;8.03;;;5.27;;
11582;SDS011;34299;50.820;4.548;2023-04-03T03:53:05;8.80;;;5.35;;
11582;SDS011;34299;50.820;4.548;2023-04-03T03:55:33;10.25;;;6.18;;
11582;SDS011;34299;50.820;4.548;2023-04-03T03:58:00;9.20;;;5.82;;
11582;SDS011;34299;50.820;4.548;2023-04-03T04:00:28;9.00;;;6.40;;
11582;SDS011;34299;50.820;4.548;2023-04-03T04:02:56;10.80;;;5.88;;
11582;SDS011;34299;50.820;4.548;2023-04-03T04:05:23;8.65;;;5.70;;
11582;SDS011;34299;50.820;4.548;2023-04-03T04:07:52;9.55;;;5.43;;
11582;SDS011;34299;50.820;4.548;2023-04-03T04:10:19;8.55;;;6.60;;
11582;SDS011;34299;50.820;4.548;2023-04-03T04:12:46;9.30;;;5.95;;
11582;SDS011;34299;50.820;4.548;2023-04-03T04:15:16;10.18;;;6.07;;
11582;SDS011;34299;50.820;4.548;2023-04-03T04:17:43;10.30;;;5.95;;
11582;SDS011;34299;50.820;4.548;2023-04-03T04:20:11;8.18;;;6.60;;
11582;SDS011;34299;50.820;4.548;2023-04-03T04:22:38;6.50;;;5.60;;
11582;SDS011;34299;50.820;4.548;2023-04-03T04:25:07;8.13;;;5.72;;
11582;SDS011;34299;50.820;4.548;2023-04-03T04:27:34;9.27;;;5.90;;
11582;SDS011;34299;50.820;4.548;2023-04-03T04:30:02;12.15;;;6.43;;
11582;SDS011;34299;50.820;4.548;2023-04-03T04:32:29;9.07;;;6.25;;
11582;SDS011;34299;50.820;4.548;2023-04-03T04:34:56;7.32;;;5.72;;
11582;SDS011;34299;50.820;4.548;2023-04-03T04:37:24;7.65;;;5.90;;
11582;SDS011;34299;50.820;4.548;2023-04-03T04:39:51;6.95;;;5.65;;
11582;SDS011;34299;50.820;4.548;2023-04-03T04:42:19;9.30;;;5.97;;
11582;SDS011;34299;50.820;4.548;2023-04-03T04:44:47;12.35;;;6.63;;
11582;SDS011;34299;50.820;4.548;2023-04-03T04:47:14;10.27;;;7.10;;
11582;SDS011;34299;50.820;4.548;2023-04-03T04:49:41;12.15;;;6.80;;
11582;SDS011;34299;50.820;4.548;2023-04-03T04:52:08;7.05;;;6.00;;
11582;SDS011;34299;50.820;4.548;2023-04-03T04:54:36;8.60;;;5.87;;
11582;SDS011;34299;50.820;4.548;2023-04-03T04:57:03;8.15;;;5.57;;
11582;SDS011;34299;50.820;4.548;2023-04-03T04:59:31;9.73;;;6.22;;
11582;SDS011;34299;50.820;4.548;2023-04-03T05:01:59;10.30;;;5.93;;
11582;SDS011;34299;50.820;4.548;2023-04-03T05:04:26;7.68;;;5.82;;
11582;SDS011;34299;50.820;4.548;2023-04-03T05:06:53;9.73;;;7.32;;
11582;SDS011;34299;50.820;4.548;2023-04-03T05:09:20;9.68;;;6.55;;
11582;SDS011;34299;50.820;4.548;2023-04-03T05:11:48;9.45;;;6.53;;
11582;SDS011;34299;50.820;4.548;2023-04-03T05:14:15;10.93;;;6.57;;
11582;SDS011;34299;50.820;4.548;2023-04-03T05:16:44;13.75;;;7.22;;
11582;SDS011;34299;50.820;4.548;2023-04-03T05:19:11;9.93;;;6.95;;
11582;SDS011;34299;50.820;4.548;2023-04-03T05:21:38;9.85;;;6.40;;
11582;SDS011;34299;50.820;4.548;2023-04-03T05:24:06;9.02;;;6.65;;
11582;SDS011;34299;50.820;4.548;2023-04-03T05:26:34;8.15;;;6.50;;
11582;SDS011;34299;50.820;4.548;2023-04-03T05:29:01;8.88;;;7.05;;
11582;SDS011;34299;50.820;4.548;2023-04-03T05:31:29;9.55;;;7.22;;
11582;SDS011;34299;50.820;4.548;2023-04-03T05:33:58;9.32;;;7.00;;
11582;SDS011;34299;50.820;4.548;2023-04-03T05:36:25;10.38;;;7.20;;
11582;SDS011;34299;50.820;4.548;2023-04-03T05:38:52;12.20;;;7.60;;
11582;SDS011;34299;50.820;4.548;2023-04-03T05:41:21;9.82;;;7.22;;
11582;SDS011;34299;50.820;4.548;2023-04-03T05:43:48;9.45;;;7.57;;
11582;SDS011;34299;50.820;4.548;2023-04-03T05:46:16;8.25;;;6.30;;
11582;SDS011;34299;50.820;4.548;2023-04-03T05:48:43;9.55;;;6.68;;
11582;SDS011;34299;50.820;4.548;2023-04-03T05:51:14;9.60;;;6.88;;
11582;SDS011;34299;50.820;4.548;2023-04-03T05:53:42;10.45;;;7.32;;
11582;SDS011;34299;50.820;4.548;2023-04-03T05:56:10;9.90;;;7.32;;
11582;SDS011;34299;50.820;4.548;2023-04-03T05:58:37;12.02;;;6.85;;
11582;SDS011;34299;50.820;4.548;2023-04-03T06:01:04;12.27;;;7.22;;
11582;SDS011;34299;50.820;4.548;2023-04-03T06:03:32;10.25;;;7.03;;
11582;SDS011;34299;50.820;4.548;2023-04-03T06:06:02;8.93;;;7.38;;
11582;SDS011;34299;50.820;4.548;2023-04-03T06:08:30;14.23;;;7.30;;
11582;SDS011;34299;50.820;4.548;2023-04-03T06:10:58;8.43;;;7.13;;
11582;SDS011;34299;50.820;4.548;2023-04-03T06:13:27;10.30;;;7.28;;
11582;SDS011;34299;50.820;4.548;2023-04-03T06:15:54;9.35;;;7.20;;
11582;SDS011;34299;50.820;4.548;2023-04-03T06:18:22;13.23;;;6.77;;
11582;SDS011;34299;50.820;4.548;2023-04-03T06:20:49;11.77;;;7.37;;
11582;SDS011;34299;50.820;4.548;2023-04-03T06:23:16;11.85;;;8.45;;
11582;SDS011;34299;50.820;4.548;2023-04-03T06:25:45;11.95;;;7.93;;
11582;SDS011;34299;50.820;4.548;2023-04-03T06:28:12;10.50;;;6.72;;
11582;SDS011;34299;50.820;4.548;2023-04-03T06:30:40;13.30;;;7.47;;
11582;SDS011;34299;50.820;4.548;2023-04-03T06:33:07;9.95;;;7.55;;
11582;SDS011;34299;50.820;4.548;2023-04-03T06:35:34;11.65;;;8.02;;
11582;SDS011;34299;50.820;4.548;2023-04-03T06:38:03;10.43;;;7.57;;
11582;SDS011;34299;50.820;4.548;2023-04-03T06:40:34;10.43;;;8.23;;
11582;SDS011;34299;50.820;4.548;2023-04-03T06:43:03;10.48;;;8.35;;
11582;SDS011;34299;50.820;4.548;2023-04-03T06:45:30;13.47;;;8.40;;
11582;SDS011;34299;50.820;4.548;2023-04-03T06:47:57;5.80;;;4.20;;
11582;SDS011;34299;50.820;4.548;2023-04-03T06:50:24;5.63;;;4.63;;
11582;SDS011;34299;50.820;4.548;2023-04-03T06:52:51;4.27;;;3.40;;
11582;SDS011;34299;50.820;4.548;2023-04-03T06:55:18;8.50;;;6.07;;
11582;SDS011;34299;50.820;4.548;2023-04-03T06:57:45;6.47;;;5.40;;
11582;SDS011;34299;50.820;4.548;2023-04-03T07:00:14;6.83;;;5.40;;
11582;SDS011;34299;50.820;4.548;2023-04-03T07:02:42;9.20;;;6.50;;
11582;SDS011;34299;50.820;4.548;2023-04-03T07:05:09;7.83;;;6.60;;
11582;SDS011;34299;50.820;4.548;2023-04-03T07:07:36;12.60;;;7.83;;
11582;SDS011;34299;50.820;4.548;2023-04-03T07:10:04;11.77;;;7.63;;
11582;SDS011;34299;50.820;4.548;2023-04-03T07:12:32;12.13;;;7.50;;
11582;SDS011;34299;50.820;4.548;2023-04-03T07:14:59;12.03;;;7.60;;
11582;SDS011;34299;50.820;4.548;2023-04-03T07:17:28;16.57;;;9.87;;
11582;SDS011;34299;50.820;4.548;2023-04-03T07:19:54;9.90;;;7.47;;
11582;SDS011;34299;50.820;4.548;2023-04-03T07:22:21;13.73;;;8.33;;
11582;SDS011;34299;50.820;4.548;2023-04-03T07:24:48;14.37;;;8.37;;
11582;SDS011;34299;50.820;4.548;2023-04-03T07:27:15;10.57;;;7.90;;
11582;SDS011;34299;50.820;4.548;2023-04-03T07:29:42;9.47;;;6.03;;
11582;SDS011;34299;50.820;4.548;2023-04-03T07:32:10;12.10;;;7.27;;
11582;SDS011;34299;50.820;4.548;2023-04-03T07:34:38;10.30;;;7.60;;
11582;SDS011;34299;50.820;4.548;2023-04-03T07:37:05;13.67;;;7.87;;
11582;SDS011;34299;50.820;4.548;2023-04-03T07:39:34;13.70;;;7.80;;
11582;SDS011;34299;50.820;4.548;2023-04-03T07:42:01;14.73;;;8.83;;
11582;SDS011;34299;50.820;4.548;2023-04-03T07:44:28;13.20;;;8.60;;
11582;SDS011;34299;50.820;4.548;2023-04-03T07:46:55;15.33;;;8.47;;
11582;SDS011;34299;50.820;4.548;2023-04-03T07:49:22;11.57;;;9.07;;
11582;SDS011;34299;50.820;4.548;2023-04-03T07:51:51;11.93;;;8.37;;
11582;SDS011;34299;50.820;4.548;2023-04-03T07:54:18;11.33;;;7.93;;
11582;SDS011;34299;50.820;4.548;2023-04-03T07:56:45;12.40;;;9.60;;
11582;SDS011;34299;50.820;4.548;2023-04-03T07:59:12;12.17;;;8.33;;
11582;SDS011;34299;50.820;4.548;2023-04-03T08:01:39;14.73;;;8.67;;
11582;SDS011;34299;50.820;4.548;2023-04-03T08:04:06;14.30;;;8.97;;
11582;SDS011;34299;50.820;4.548;2023-04-03T08:06:32;12.73;;;9.30;;
11582;SDS011;34299;50.820;4.548;2023-04-03T08:09:03;12.37;;;8.23;;
11582;SDS011;34299;50.820;4.548;2023-04-03T08:11:30;13.57;;;9.17;;
11582;SDS011;34299;50.820;4.548;2023-04-03T08:13:57;12.63;;;8.27;;
11582;SDS011;34299;50.820;4.548;2023-04-03T08:16:24;13.70;;;9.27;;
11582;SDS011;34299;50.820;4.548;2023-04-03T08:18:52;10.37;;;7.27;;
11582;SDS011;34299;50.820;4.548;2023-04-03T08:21:20;12.53;;;7.90;;
11582;SDS011;34299;50.820;4.548;2023-04-03T08:23:48;12.27;;;9.63;;
11582;SDS011;34299;50.820;4.548;2023-04-03T08:26:18;13.73;;;9.37;;
11582;SDS011;34299;50.820;4.548;2023-04-03T08:28:47;8.67;;;7.63;;
11582;SDS011;34299;50.820;4.548;2023-04-03T08:31:15;13.63;;;8.17;;
11582;SDS011;34299;50.820;4.548;2023-04-03T08:33:45;11.63;;;9.07;;
11582;SDS011;34299;50.820;4.548;2023-04-03T08:36:16;10.10;;;7.97;;
11582;SDS011;34299;50.820;4.548;2023-04-03T08:38:45;13.43;;;9.23;;
11582;SDS011;34299;50.820;4.548;2023-04-03T08:41:14;13.87;;;8.83;;
11582;SDS011;34299;50.820;4.548;2023-04-03T08:44:02;8.70;;;6.83;;
11582;SDS011;34299;50.820;4.548;2023-04-03T08:46:38;11.23;;;6.63;;
11582;SDS011;34299;50.820;4.548;2023-04-03T08:49:16;13.27;;;7.60;;
11582;SDS011;34299;50.820;4.548;2023-04-03T08:51:49;9.40;;;6.33;;
11582;SDS011;34299;50.820;4.548;2023-04-03T08:54:21;7.27;;;5.67;;
11582;SDS011;34299;50.820;4.548;2023-04-03T08:56:58;14.20;;;5.87;;
11582;SDS011;34299;50.820;4.548;2023-04-03T08:59:29;9.30;;;4.90;;
11582;SDS011;34299;50.820;4.548;2023-04-03T09:01:59;5.97;;;4.13;;
11582;SDS011;34299;50.820;4.548;2023-04-03T09:04:32;4.03;;;3.60;;
11582;SDS011;34299;50.820;4.548;2023-04-03T09:07:02;4.97;;;3.47;;
11582;SDS011;34299;50.820;4.548;2023-04-03T09:09:31;5.30;;;3.40;;
11582;SDS011;34299;50.820;4.548;2023-04-03T09:12:03;6.47;;;3.40;;
11582;SDS011;34299;50.820;4.548;2023-04-03T09:14:36;3.73;;;2.97;;
11582;SDS011;34299;50.820;4.548;2023-04-03T09:17:09;2.90;;;2.43;;
11582;SDS011;34299;50.820;4.548;2023-04-03T09:19:38;3.80;;;2.67;;
11582;SDS011;34299;50.820;4.548;2023-04-03T09:22:11;4.07;;;2.37;;
11582;SDS011;34299;50.820;4.548;2023-04-03T09:24:40;6.00;;;2.43;;
11582;SDS011;34299;50.820;4.548;2023-04-03T09:27:10;3.30;;;2.27;;
11582;SDS011;34299;50.820;4.548;2023-04-03T09:29:39;3.53;;;2.00;;
11582;SDS011;34299;50.820;4.548;2023-04-03T09:32:12;5.80;;;2.40;;
11582;SDS011;34299;50.820;4.548;2023-04-03T09:34:42;2.97;;;2.17;;
11582;SDS011;34299;50.820;4.548;2023-04-03T09:37:10;3.40;;;1.70;;
11582;SDS011;34299;50.820;4.548;2023-04-03T09:39:57;3.80;;;2.03;;
11582;SDS011;34299;50.820;4.548;2023-04-03T09:42:27;4.43;;;1.90;;
11582;SDS011;34299;50.820;4.548;2023-04-03T09:44:57;3.87;;;1.90;;
11582;SDS011;34299;50.820;4.548;2023-04-03T09:47:25;2.50;;;2.10;;
11582;SDS011;34299;50.820;4.548;2023-04-03T09:50:03;1.67;;;1.57;;
11582;SDS011;34299;50.820;4.548;2023-04-03T09:52:35;4.90;;;2.43;;
11582;SDS011;34299;50.820;4.548;2023-04-03T09:55:06;4.73;;;2.33;;
11582;SDS011;34299;50.820;4.548;2023-04-03T09:57:35;1.70;;;1.40;;
11582;SDS011;34299;50.820;4.548;2023-04-03T10:00:03;3.03;;;1.83;;
11582;SDS011;34299;50.820;4.548;2023-04-03T10:02:35;2.20;;;1.73;;
11582;SDS011;34299;50.820;4.548;2023-04-03T10:05:03;2.27;;;1.67;;
11582;SDS011;34299;50.820;4.548;2023-04-03T10:07:32;4.97;;;1.77;;
11582;SDS011;34299;50.820;4.548;2023-04-03T10:10:02;2.90;;;2.07;;
11582;SDS011;34299;50.820;4.548;2023-04-03T10:12:29;2.23;;;1.80;;
11582;SDS011;34299;50.820;4.548;2023-04-03T10:14:59;4.10;;;1.80;;
11582;SDS011;34299;50.820;4.548;2023-04-03T10:17:30;2.63;;;1.97;;
11582;SDS011;34299;50.820;4.548;2023-04-03T10:20:02;1.90;;;1.80;;
11582;SDS011;34299;50.820;4.548;2023-04-03T10:22:33;3.40;;;1.93;;
11582;SDS011;34299;50.820;4.548;2023-04-03T10:25:07;2.33;;;2.07;;
11582;SDS011;34299;50.820;4.548;2023-04-03T10:27:42;2.03;;;1.83;;
11582;SDS011;34299;50.820;4.548;2023-04-03T10:30:21;2.80;;;2.20;;
11582;SDS011;34299;50.820;4.548;2023-04-03T10:32:54;4.33;;;2.37;;
11582;SDS011;34299;50.820;4.548;2023-04-03T10:35:29;9.43;;;4.67;;
11582;SDS011;34299;50.820;4.548;2023-04-03T10:38:04;19.30;;;10.13;;
11582;SDS011;34299;50.820;4.548;2023-04-03T10:40:37;5.10;;;2.57;;
11582;SDS011;34299;50.820;4.548;2023-04-03T10:43:08;4.17;;;2.17;;
11582;SDS011;34299;50.820;4.548;2023-04-03T10:45:48;4.10;;;1.80;;
11582;SDS011;34299;50.820;4.548;2023-04-03T10:48:18;3.47;;;2.30;;
11582;SDS011;34299;50.820;4.548;2023-04-03T10:50:51;5.10;;;2.77;;
11582;SDS011;34299;50.820;4.548;2023-04-03T10:53:23;3.33;;;2.40;;
11582;SDS011;34299;50.820;4.548;2023-04-03T10:55:54;15.03;;;8.00;;
11582;SDS011;34299;50.820;4.548;2023-04-03T10:58:25;5.37;;;2.50;;
11582;SDS011;34299;50.820;4.548;2023-04-03T11:00:59;6.20;;;4.20;;
11582;SDS011;34299;50.820;4.548;2023-04-03T11:03:29;3.40;;;2.43;;
11582;SDS011;34299;50.820;4.548;2023-04-03T11:05:57;4.00;;;2.20;;
11582;SDS011;34299;50.820;4.548;2023-04-03T11:08:28;2.63;;;2.33;;
11582;SDS011;34299;50.820;4.548;2023-04-03T11:10:57;3.23;;;2.43;;
11582;SDS011;34299;50.820;4.548;2023-04-03T11:13:26;2.57;;;1.87;;
11582;SDS011;34299;50.820;4.548;2023-04-03T11:15:55;2.40;;;1.60;;
11582;SDS011;34299;50.820;4.548;2023-04-03T11:18:26;2.00;;;1.73;;
11582;SDS011;34299;50.820;4.548;2023-04-03T11:20:57;2.43;;;1.40;;
11582;SDS011;34299;50.820;4.548;2023-04-03T11:23:26;2.57;;;1.30;;
11582;SDS011;34299;50.820;4.548;2023-04-03T11:26:05;2.03;;;1.40;;
11582;SDS011;34299;50.820;4.548;2023-04-03T11:28:33;3.27;;;1.50;;
11582;SDS011;34299;50.820;4.548;2023-04-03T11:31:02;2.17;;;1.50;;
11582;SDS011;34299;50.820;4.548;2023-04-03T11:33:39;1.80;;;1.40;;
11582;SDS011;34299;50.820;4.548;2023-04-03T11:36:08;1.10;;;1.00;;
11582;SDS011;34299;50.820;4.548;2023-04-03T11:38:37;1.67;;;1.40;;
11582;SDS011;34299;50.820;4.548;2023-04-03T11:41:06;1.67;;;1.30;;
11582;SDS011;34299;50.820;4.548;2023-04-03T11:43:36;3.30;;;1.67;;
11582;SDS011;34299;50.820;4.548;2023-04-03T11:46:07;4.97;;;1.60;;
11582;SDS011;34299;50.820;4.548;2023-04-03T11:48:51;1.67;;;1.20;;
11582;SDS011;34299;50.820;4.548;2023-04-03T11:56:59;2.93;;;1.30;;
11582;SDS011;34299;50.820;4.548;2023-04-03T11:59:27;1.03;;;0.90;;
11582;SDS011;34299;50.820;4.548;2023-04-03T12:02:14;1.50;;;1.20;;
11582;SDS011;34299;50.820;4.548;2023-04-03T12:07:41;2.10;;;1.90;;
11582;SDS011;34299;50.820;4.548;2023-04-03T12:10:15;3.97;;;1.50;;
11582;SDS011;34299;50.820;4.548;2023-04-03T12:12:43;1.63;;;1.27;;
11582;SDS011;34299;50.820;4.548;2023-04-03T12:20:56;1.70;;;1.40;;
11582;SDS011;34299;50.820;4.548;2023-04-03T12:23:29;2.10;;;1.30;;
11582;SDS011;34299;50.820;4.548;2023-04-03T12:26:01;1.47;;;1.10;;
11582;SDS011;34299;50.820;4.548;2023-04-03T12:28:30;2.23;;;1.23;;
11582;SDS011;34299;50.820;4.548;2023-04-03T12:30:58;3.10;;;1.23;;
11582;SDS011;34299;50.820;4.548;2023-04-03T12:33:31;2.17;;;1.23;;
11582;SDS011;34299;50.820;4.548;2023-04-03T12:36:06;1.30;;;1.10;;
11582;SDS011;34299;50.820;4.548;2023-04-03T12:41:26;2.13;;;1.30;;
11582;SDS011;34299;50.820;4.548;2023-04-03T12:44:04;2.23;;;1.70;;
11582;SDS011;34299;50.820;4.548;2023-04-03T12:46:35;2.27;;;1.30;;
11582;SDS011;34299;50.820;4.548;2023-04-03T12:49:10;1.30;;;1.20;;
11582;SDS011;34299;50.820;4.548;2023-04-03T12:51:40;2.00;;;1.10;;
11582;SDS011;34299;50.820;4.548;2023-04-03T12:54:12;1.87;;;1.10;;
11582;SDS011;34299;50.820;4.548;2023-04-03T12:56:41;1.60;;;1.00;;
11582;SDS011;34299;50.820;4.548;2023-04-03T12:59:16;2.93;;;1.23;;
11582;SDS011;34299;50.820;4.548;2023-04-03T13:01:43;1.20;;;0.93;;
11582;SDS011;34299;50.820;4.548;2023-04-03T13:04:10;1.93;;;1.10;;
11582;SDS011;34299;50.820;4.548;2023-04-03T13:06:39;1.77;;;1.20;;
11582;SDS011;34299;50.820;4.548;2023-04-03T13:09:14;2.63;;;1.07;;
11582;SDS011;34299;50.820;4.548;2023-04-03T13:11:48;2.37;;;1.13;;
11582;SDS011;34299;50.820;4.548;2023-04-03T13:14:16;0.93;;;0.87;;
11582;SDS011;34299;50.820;4.548;2023-04-03T13:16:52;2.03;;;0.80;;
11582;SDS011;34299;50.820;4.548;2023-04-03T13:19:20;1.10;;;0.87;;
11582;SDS011;34299;50.820;4.548;2023-04-03T13:21:47;1.97;;;1.20;;
11582;SDS011;34299;50.820;4.548;2023-04-03T13:24:14;3.43;;;1.13;;
11582;SDS011;34299;50.820;4.548;2023-04-03T13:26:42;1.20;;;1.10;;
11582;SDS011;34299;50.820;4.548;2023-04-03T13:29:17;3.07;;;1.50;;
11582;SDS011;34299;50.820;4.548;2023-04-03T13:31:45;2.13;;;1.30;;
11582;SDS011;34299;50.820;4.548;2023-04-03T13:34:13;1.43;;;1.30;;
11582;SDS011;34299;50.820;4.548;2023-04-03T13:36:43;2.57;;;1.23;;
11582;SDS011;34299;50.820;4.548;2023-04-03T13:39:20;3.60;;;1.27;;
11582;SDS011;34299;50.820;4.548;2023-04-03T13:41:49;2.80;;;1.40;;
11582;SDS011;34299;50.820;4.548;2023-04-03T13:44:23;2.67;;;1.30;;
11582;SDS011;34299;50.820;4.548;2023-04-03T13:46:53;2.60;;;1.40;;
11582;SDS011;34299;50.820;4.548;2023-04-03T13:49:20;2.10;;;1.63;;
11582;SDS011;34299;50.820;4.548;2023-04-03T13:51:48;1.87;;;1.13;;
11582;SDS011;34299;50.820;4.548;2023-04-03T13:54:19;2.73;;;1.23;;
11582;SDS011;34299;50.820;4.548;2023-04-03T13:56:52;2.00;;;1.53;;
11582;SDS011;34299;50.820;4.548;2023-04-03T13:59:27;2.00;;;1.00;;
11582;SDS011;34299;50.820;4.548;2023-04-03T14:01:56;1.77;;;1.17;;
11582;SDS011;34299;50.820;4.548;2023-04-03T14:04:43;2.80;;;1.50;;
11582;SDS011;34299;50.820;4.548;2023-04-03T14:07:11;1.73;;;1.30;;
11582;SDS011;34299;50.820;4.548;2023-04-03T14:09:38;5.77;;;1.30;;
11582;SDS011;34299;50.820;4.548;2023-04-03T14:12:07;1.40;;;1.27;;
11582;SDS011;34299;50.820;4.548;2023-04-03T14:14:36;1.40;;;1.10;;
11582;SDS011;34299;50.820;4.548;2023-04-03T14:17:10;1.53;;;1.10;;
11582;SDS011;34299;50.820;4.548;2023-04-03T14:19:39;1.47;;;1.20;;
11582;SDS011;34299;50.820;4.548;2023-04-03T14:22:10;2.70;;;1.30;;
11582;SDS011;34299;50.820;4.548;2023-04-03T14:24:39;1.60;;;1.37;;
11582;SDS011;34299;50.820;4.548;2023-04-03T14:27:10;1.53;;;1.00;;
11582;SDS011;34299;50.820;4.548;2023-04-03T14:29:40;1.90;;;1.17;;
11582;SDS011;34299;50.820;4.548;2023-04-03T14:32:10;2.63;;;1.33;;
11582;SDS011;34299;50.820;4.548;2023-04-03T14:34:37;1.93;;;1.20;;
11582;SDS011;34299;50.820;4.548;2023-04-03T14:37:05;1.77;;;1.00;;
11582;SDS011;34299;50.820;4.548;2023-04-03T14:39:32;1.73;;;1.40;;
11582;SDS011;34299;50.820;4.548;2023-04-03T14:42:00;2.50;;;1.10;;
11582;SDS011;34299;50.820;4.548;2023-04-03T14:44:27;1.43;;;1.13;;
11582;SDS011;34299;50.820;4.548;2023-04-03T14:46:56;2.37;;;1.30;;
11582;SDS011;34299;50.820;4.548;2023-04-03T14:49:24;1.87;;;1.17;;
11582;SDS011;34299;50.820;4.548;2023-04-03T14:51:53;1.20;;;1.10;;
11582;SDS011;34299;50.820;4.548;2023-04-03T14:54:21;2.53;;;1.33;;
11582;SDS011;34299;50.820;4.548;2023-04-03T14:56:50;2.47;;;1.47;;
11582;SDS011;34299;50.820;4.548;2023-04-03T14:59:18;1.30;;;1.20;;
11582;SDS011;34299;50.820;4.548;2023-04-03T15:01:46;1.47;;;1.30;;
11582;SDS011;34299;50.820;4.548;2023-04-03T15:04:16;1.83;;;1.53;;
11582;SDS011;34299;50.820;4.548;2023-04-03T15:06:43;1.40;;;1.23;;
11582;SDS011;34299;50.820;4.548;2023-04-03T15:09:13;1.63;;;1.27;;
11582;SDS011;34299;50.820;4.548;2023-04-03T15:11:43;3.73;;;2.00;;
11582;SDS011;34299;50.820;4.548;2023-04-03T15:14:11;3.97;;;1.47;;
11582;SDS011;34299;50.820;4.548;2023-04-03T15:16:38;2.60;;;1.20;;